sensor_id;sensor_type;location;lat;lon;timestamp;P1;durP1;ratioP1;P2;durP2;ratioP2
30062;SDS011;16889;67.864;24.990;2022-12-20T00:02:59;4.45;;;1.58;;
30062;SDS011;16889;67.864;24.990;2022-12-20T00:07:45;2.58;;;1.00;;
30062;SDS011;16889;67.864;24.990;2022-12-20T00:12:31;2.50;;;1.33;;
30062;SDS011;16889;67.864;24.990;2022-12-20T00:17:17;2.75;;;1.30;;
30062;SDS011;16889;67.864;24.990;2022-12-20T00:22:03;4.07;;;1.20;;
30062;SDS011;16889;67.864;24.990;2022-12-20T00:26:49;3.47;;;1.05;;
30062;SDS011;16889;67.864;24.990;2022-12-20T00:31:35;3.55;;;1.08;;
30062;SDS011;16889;67.864;24.990;2022-12-20T00:36:24;4.97;;;1.40;;
30062;SDS011;16889;67.864;24.990;2022-12-20T00:41:20;3.05;;;1.52;;
30062;SDS011;16889;67.864;24.990;2022-12-20T00:51:02;2.25;;;1.05;;
30062;SDS011;16889;67.864;24.990;2022-12-20T00:55:49;3.78;;;1.20;;
30062;SDS011;16889;67.864;24.990;2022-12-20T01:00:35;2.72;;;1.02;;
30062;SDS011;16889;67.864;24.990;2022-12-20T01:05:22;3.58;;;1.02;;
30062;SDS011;16889;67.864;24.990;2022-12-20T01:10:08;2.65;;;1.08;;
30062;SDS011;16889;67.864;24.990;2022-12-20T01:14:55;1.75;;;0.65;;
30062;SDS011;16889;67.864;24.990;2022-12-20T01:19:41;2.28;;;1.15;;
30062;SDS011;16889;67.864;24.990;2022-12-20T01:24:27;3.78;;;1.02;;
30062;SDS011;16889;67.864;24.990;2022-12-20T01:29:13;3.45;;;1.10;;
30062;SDS011;16889;67.864;24.990;2022-12-20T01:33:59;1.55;;;0.93;;
30062;SDS011;16889;67.864;24.990;2022-12-20T01:38:46;2.35;;;1.00;;
30062;SDS011;16889;67.864;24.990;2022-12-20T01:43:45;0.98;;;0.88;;
30062;SDS011;16889;67.864;24.990;2022-12-20T01:48:32;2.00;;;1.02;;
30062;SDS011;16889;67.864;24.990;2022-12-20T01:53:19;2.60;;;1.17;;
30062;SDS011;16889;67.864;24.990;2022-12-20T01:58:08;1.83;;;0.90;;
30062;SDS011;16889;67.864;24.990;2022-12-20T02:02:58;2.70;;;1.05;;
30062;SDS011;16889;67.864;24.990;2022-12-20T02:07:50;1.45;;;0.80;;
30062;SDS011;16889;67.864;24.990;2022-12-20T02:12:45;3.92;;;0.80;;
30062;SDS011;16889;67.864;24.990;2022-12-20T02:17:40;1.33;;;0.85;;
30062;SDS011;16889;67.864;24.990;2022-12-20T02:32:51;1.80;;;1.00;;
30062;SDS011;16889;67.864;24.990;2022-12-20T02:37:47;1.50;;;0.68;;
30062;SDS011;16889;67.864;24.990;2022-12-20T02:42:38;2.03;;;0.95;;
30062;SDS011;16889;67.864;24.990;2022-12-20T02:47:32;1.48;;;0.88;;
30062;SDS011;16889;67.864;24.990;2022-12-20T02:52:23;1.73;;;1.13;;
30062;SDS011;16889;67.864;24.990;2022-12-20T03:02:01;0.88;;;0.60;;
30062;SDS011;16889;67.864;24.990;2022-12-20T03:07:01;2.13;;;1.00;;
30062;SDS011;16889;67.864;24.990;2022-12-20T03:11:50;2.17;;;0.90;;
30062;SDS011;16889;67.864;24.990;2022-12-20T03:16:37;2.25;;;0.93;;
30062;SDS011;16889;67.864;24.990;2022-12-20T03:21:23;1.52;;;0.88;;
30062;SDS011;16889;67.864;24.990;2022-12-20T03:26:09;3.30;;;0.75;;
30062;SDS011;16889;67.864;24.990;2022-12-20T03:30:55;0.85;;;0.75;;
30062;SDS011;16889;67.864;24.990;2022-12-20T03:35:41;2.53;;;0.93;;
30062;SDS011;16889;67.864;24.990;2022-12-20T03:40:27;3.13;;;0.80;;
30062;SDS011;16889;67.864;24.990;2022-12-20T03:45:13;1.42;;;0.90;;
30062;SDS011;16889;67.864;24.990;2022-12-20T03:49:59;1.77;;;0.80;;
30062;SDS011;16889;67.864;24.990;2022-12-20T03:54:45;4.57;;;0.85;;
30062;SDS011;16889;67.864;24.990;2022-12-20T03:59:31;2.25;;;1.05;;
30062;SDS011;16889;67.864;24.990;2022-12-20T04:04:18;2.08;;;1.15;;
30062;SDS011;16889;67.864;24.990;2022-12-20T04:09:04;3.10;;;1.00;;
30062;SDS011;16889;67.864;24.990;2022-12-20T04:24:11;2.05;;;0.88;;
30062;SDS011;16889;67.864;24.990;2022-12-20T04:28:57;1.33;;;0.80;;
30062;SDS011;16889;67.864;24.990;2022-12-20T04:33:43;2.88;;;1.42;;
30062;SDS011;16889;67.864;24.990;2022-12-20T04:38:30;2.67;;;1.50;;
30062;SDS011;16889;67.864;24.990;2022-12-20T04:43:16;2.22;;;1.27;;
30062;SDS011;16889;67.864;24.990;2022-12-20T04:48:03;7.43;;;1.40;;
30062;SDS011;16889;67.864;24.990;2022-12-20T04:52:49;2.60;;;1.35;;
30062;SDS011;16889;67.864;24.990;2022-12-20T04:57:54;2.35;;;1.02;;
30062;SDS011;16889;67.864;24.990;2022-12-20T05:02:40;3.40;;;1.50;;
30062;SDS011;16889;67.864;24.990;2022-12-20T05:07:26;2.55;;;1.58;;
30062;SDS011;16889;67.864;24.990;2022-12-20T05:12:12;6.88;;;1.38;;
30062;SDS011;16889;67.864;24.990;2022-12-20T05:16:58;1.00;;;0.80;;
30062;SDS011;16889;67.864;24.990;2022-12-20T05:21:44;2.25;;;0.90;;
30062;SDS011;16889;67.864;24.990;2022-12-20T05:26:48;6.90;;;1.67;;
30062;SDS011;16889;67.864;24.990;2022-12-20T05:31:34;1.73;;;1.00;;
30062;SDS011;16889;67.864;24.990;2022-12-20T05:36:20;3.17;;;1.80;;
30062;SDS011;16889;67.864;24.990;2022-12-20T05:41:06;4.38;;;2.00;;
30062;SDS011;16889;67.864;24.990;2022-12-20T05:45:53;3.83;;;2.10;;
30062;SDS011;16889;67.864;24.990;2022-12-20T05:50:39;3.05;;;1.65;;
30062;SDS011;16889;67.864;24.990;2022-12-20T05:55:28;2.80;;;1.42;;
30062;SDS011;16889;67.864;24.990;2022-12-20T06:00:15;3.78;;;1.60;;
30062;SDS011;16889;67.864;24.990;2022-12-20T06:05:01;4.38;;;2.00;;
30062;SDS011;16889;67.864;24.990;2022-12-20T06:09:47;5.22;;;2.22;;
30062;SDS011;16889;67.864;24.990;2022-12-20T06:14:33;2.95;;;1.70;;
30062;SDS011;16889;67.864;24.990;2022-12-20T06:19:20;6.10;;;1.83;;
30062;SDS011;16889;67.864;24.990;2022-12-20T06:24:06;3.08;;;1.70;;
30062;SDS011;16889;67.864;24.990;2022-12-20T06:28:52;3.10;;;1.70;;
30062;SDS011;16889;67.864;24.990;2022-12-20T06:33:41;4.25;;;1.60;;
30062;SDS011;16889;67.864;24.990;2022-12-20T06:38:28;4.45;;;1.70;;
30062;SDS011;16889;67.864;24.990;2022-12-20T06:43:14;3.28;;;1.73;;
30062;SDS011;16889;67.864;24.990;2022-12-20T06:48:01;3.13;;;1.73;;
30062;SDS011;16889;67.864;24.990;2022-12-20T06:52:47;2.55;;;1.20;;
30062;SDS011;16889;67.864;24.990;2022-12-20T06:57:33;3.38;;;1.40;;
30062;SDS011;16889;67.864;24.990;2022-12-20T07:02:19;2.42;;;1.13;;
30062;SDS011;16889;67.864;24.990;2022-12-20T07:07:05;5.38;;;2.03;;
30062;SDS011;16889;67.864;24.990;2022-12-20T07:11:51;3.65;;;1.48;;
30062;SDS011;16889;67.864;24.990;2022-12-20T07:16:37;3.33;;;1.40;;
30062;SDS011;16889;67.864;24.990;2022-12-20T07:21:26;5.32;;;1.38;;
30062;SDS011;16889;67.864;24.990;2022-12-20T07:26:12;5.85;;;1.63;;
30062;SDS011;16889;67.864;24.990;2022-12-20T07:31:00;11.35;;;2.47;;
30062;SDS011;16889;67.864;24.990;2022-12-20T07:35:47;7.70;;;2.33;;
30062;SDS011;16889;67.864;24.990;2022-12-20T07:40:33;5.85;;;2.03;;
30062;SDS011;16889;67.864;24.990;2022-12-20T07:45:19;6.43;;;2.35;;
30062;SDS011;16889;67.864;24.990;2022-12-20T07:50:05;7.20;;;2.15;;
30062;SDS011;16889;67.864;24.990;2022-12-20T07:54:56;5.53;;;1.92;;
30062;SDS011;16889;67.864;24.990;2022-12-20T07:59:48;8.23;;;2.30;;
30062;SDS011;16889;67.864;24.990;2022-12-20T08:04:38;4.32;;;2.00;;
30062;SDS011;16889;67.864;24.990;2022-12-20T08:09:25;6.97;;;2.67;;
30062;SDS011;16889;67.864;24.990;2022-12-20T08:14:15;8.73;;;3.00;;
30062;SDS011;16889;67.864;24.990;2022-12-20T08:19:03;6.40;;;2.85;;
30062;SDS011;16889;67.864;24.990;2022-12-20T08:23:49;7.75;;;3.40;;
30062;SDS011;16889;67.864;24.990;2022-12-20T08:28:36;7.95;;;2.75;;
30062;SDS011;16889;67.864;24.990;2022-12-20T08:33:22;6.38;;;2.95;;
30062;SDS011;16889;67.864;24.990;2022-12-20T08:38:08;5.47;;;2.90;;
30062;SDS011;16889;67.864;24.990;2022-12-20T08:42:54;5.35;;;2.40;;
30062;SDS011;16889;67.864;24.990;2022-12-20T08:47:40;6.75;;;2.45;;
30062;SDS011;16889;67.864;24.990;2022-12-20T08:52:27;5.43;;;2.17;;
30062;SDS011;16889;67.864;24.990;2022-12-20T08:57:13;5.07;;;2.13;;
30062;SDS011;16889;67.864;24.990;2022-12-20T09:01:59;5.40;;;1.85;;
30062;SDS011;16889;67.864;24.990;2022-12-20T09:06:46;4.80;;;2.10;;
30062;SDS011;16889;67.864;24.990;2022-12-20T09:11:32;5.75;;;1.70;;
30062;SDS011;16889;67.864;24.990;2022-12-20T09:16:19;5.80;;;2.17;;
30062;SDS011;16889;67.864;24.990;2022-12-20T09:21:07;3.70;;;1.83;;
30062;SDS011;16889;67.864;24.990;2022-12-20T09:25:54;6.78;;;2.78;;
30062;SDS011;16889;67.864;24.990;2022-12-20T09:30:45;6.10;;;2.67;;
30062;SDS011;16889;67.864;24.990;2022-12-20T09:35:31;7.63;;;2.90;;
30062;SDS011;16889;67.864;24.990;2022-12-20T09:40:18;9.32;;;3.42;;
30062;SDS011;16889;67.864;24.990;2022-12-20T09:45:07;7.30;;;3.13;;
30062;SDS011;16889;67.864;24.990;2022-12-20T09:49:56;6.80;;;2.47;;
30062;SDS011;16889;67.864;24.990;2022-12-20T09:54:55;7.22;;;3.22;;
30062;SDS011;16889;67.864;24.990;2022-12-20T10:00:02;8.82;;;2.58;;
30062;SDS011;16889;67.864;24.990;2022-12-20T10:04:56;5.85;;;2.60;;
30062;SDS011;16889;67.864;24.990;2022-12-20T10:15:19;6.60;;;2.58;;
30062;SDS011;16889;67.864;24.990;2022-12-20T10:20:26;4.75;;;2.38;;
30062;SDS011;16889;67.864;24.990;2022-12-20T10:25:46;5.18;;;2.35;;
30062;SDS011;16889;67.864;24.990;2022-12-20T10:30:34;5.25;;;2.65;;
30062;SDS011;16889;67.864;24.990;2022-12-20T10:40:28;7.50;;;2.53;;
30062;SDS011;16889;67.864;24.990;2022-12-20T11:00:32;7.78;;;2.75;;
30062;SDS011;16889;67.864;24.990;2022-12-20T11:05:22;5.95;;;2.38;;
30062;SDS011;16889;67.864;24.990;2022-12-20T11:15:20;6.25;;;2.35;;
30062;SDS011;16889;67.864;24.990;2022-12-20T11:31:23;5.40;;;2.50;;
30062;SDS011;16889;67.864;24.990;2022-12-20T11:41:47;7.85;;;2.15;;
30062;SDS011;16889;67.864;24.990;2022-12-20T11:57:26;5.03;;;2.15;;
30062;SDS011;16889;67.864;24.990;2022-12-20T12:07:24;5.53;;;2.15;;
30062;SDS011;16889;67.864;24.990;2022-12-20T12:12:18;4.83;;;2.00;;
30062;SDS011;16889;67.864;24.990;2022-12-20T12:17:20;5.47;;;1.90;;
30062;SDS011;16889;67.864;24.990;2022-12-20T12:22:26;6.07;;;2.60;;
30062;SDS011;16889;67.864;24.990;2022-12-20T12:27:22;6.90;;;2.45;;
30062;SDS011;16889;67.864;24.990;2022-12-20T12:32:16;7.80;;;2.80;;
30062;SDS011;16889;67.864;24.990;2022-12-20T12:47:16;7.43;;;2.40;;
30062;SDS011;16889;67.864;24.990;2022-12-20T12:52:44;7.20;;;2.33;;
30062;SDS011;16889;67.864;24.990;2022-12-20T12:57:53;8.63;;;2.20;;
30062;SDS011;16889;67.864;24.990;2022-12-20T13:02:48;8.13;;;2.90;;
30062;SDS011;16889;67.864;24.990;2022-12-20T13:26:56;6.80;;;2.63;;
30062;SDS011;16889;67.864;24.990;2022-12-20T13:31:44;8.38;;;2.30;;
30062;SDS011;16889;67.864;24.990;2022-12-20T13:36:38;7.15;;;2.67;;
30062;SDS011;16889;67.864;24.990;2022-12-20T13:41:29;6.18;;;2.15;;
30062;SDS011;16889;67.864;24.990;2022-12-20T13:51:44;10.07;;;2.85;;
30062;SDS011;16889;67.864;24.990;2022-12-20T13:56:33;8.85;;;2.72;;
30062;SDS011;16889;67.864;24.990;2022-12-20T14:01:31;11.38;;;2.75;;
30062;SDS011;16889;67.864;24.990;2022-12-20T14:06:19;5.75;;;2.65;;
30062;SDS011;16889;67.864;24.990;2022-12-20T14:11:18;7.70;;;2.78;;
30062;SDS011;16889;67.864;24.990;2022-12-20T14:16:09;9.85;;;2.47;;
30062;SDS011;16889;67.864;24.990;2022-12-20T14:21:05;7.15;;;2.47;;
30062;SDS011;16889;67.864;24.990;2022-12-20T14:25:54;9.43;;;3.13;;
30062;SDS011;16889;67.864;24.990;2022-12-20T14:30:42;10.18;;;3.20;;
30062;SDS011;16889;67.864;24.990;2022-12-20T14:35:29;8.35;;;2.65;;
30062;SDS011;16889;67.864;24.990;2022-12-20T14:40:16;6.63;;;2.20;;
30062;SDS011;16889;67.864;24.990;2022-12-20T14:49:57;6.07;;;2.30;;
30062;SDS011;16889;67.864;24.990;2022-12-20T14:54:53;6.72;;;2.33;;
30062;SDS011;16889;67.864;24.990;2022-12-20T14:59:41;7.90;;;2.78;;
30062;SDS011;16889;67.864;24.990;2022-12-20T15:05:49;8.93;;;2.45;;
30062;SDS011;16889;67.864;24.990;2022-12-20T15:10:18;7.25;;;2.30;;
30062;SDS011;16889;67.864;24.990;2022-12-20T15:15:05;14.57;;;3.22;;
30062;SDS011;16889;67.864;24.990;2022-12-20T15:19:56;8.30;;;2.30;;
30062;SDS011;16889;67.864;24.990;2022-12-20T15:24:43;6.13;;;2.05;;
30062;SDS011;16889;67.864;24.990;2022-12-20T15:29:29;5.32;;;2.22;;
30062;SDS011;16889;67.864;24.990;2022-12-20T15:39:16;8.48;;;2.50;;
30062;SDS011;16889;67.864;24.990;2022-12-20T15:44:03;6.28;;;2.38;;
30062;SDS011;16889;67.864;24.990;2022-12-20T15:48:52;12.23;;;2.75;;
30062;SDS011;16889;67.864;24.990;2022-12-20T15:53:38;7.63;;;2.50;;
30062;SDS011;16889;67.864;24.990;2022-12-20T15:58:24;8.85;;;2.60;;
30062;SDS011;16889;67.864;24.990;2022-12-20T16:03:15;6.75;;;2.15;;
30062;SDS011;16889;67.864;24.990;2022-12-20T16:08:04;15.95;;;2.38;;
30062;SDS011;16889;67.864;24.990;2022-12-20T16:12:50;4.70;;;2.00;;
30062;SDS011;16889;67.864;24.990;2022-12-20T16:17:36;11.63;;;2.15;;
30062;SDS011;16889;67.864;24.990;2022-12-20T16:22:22;4.75;;;2.08;;
30062;SDS011;16889;67.864;24.990;2022-12-20T16:27:09;9.25;;;2.42;;
30062;SDS011;16889;67.864;24.990;2022-12-20T16:31:55;7.55;;;2.33;;
30062;SDS011;16889;67.864;24.990;2022-12-20T16:36:41;5.05;;;2.13;;
30062;SDS011;16889;67.864;24.990;2022-12-20T16:41:28;5.55;;;2.60;;
30062;SDS011;16889;67.864;24.990;2022-12-20T16:46:19;5.38;;;1.88;;
30062;SDS011;16889;67.864;24.990;2022-12-20T16:51:25;8.65;;;2.30;;
30062;SDS011;16889;67.864;24.990;2022-12-20T17:00:59;5.38;;;1.70;;
30062;SDS011;16889;67.864;24.990;2022-12-20T17:05:45;5.78;;;1.63;;
30062;SDS011;16889;67.864;24.990;2022-12-20T17:10:31;7.20;;;2.22;;
30062;SDS011;16889;67.864;24.990;2022-12-20T17:15:22;4.93;;;1.52;;
30062;SDS011;16889;67.864;24.990;2022-12-20T17:20:10;6.60;;;1.92;;
30062;SDS011;16889;67.864;24.990;2022-12-20T17:24:57;6.47;;;1.92;;
30062;SDS011;16889;67.864;24.990;2022-12-20T17:29:43;4.68;;;1.88;;
30062;SDS011;16889;67.864;24.990;2022-12-20T17:34:29;6.03;;;2.00;;
30062;SDS011;16889;67.864;24.990;2022-12-20T17:39:16;8.00;;;2.20;;
30062;SDS011;16889;67.864;24.990;2022-12-20T17:44:02;6.03;;;2.35;;
30062;SDS011;16889;67.864;24.990;2022-12-20T17:48:50;5.25;;;2.05;;
30062;SDS011;16889;67.864;24.990;2022-12-20T17:53:37;4.05;;;1.75;;
30062;SDS011;16889;67.864;24.990;2022-12-20T17:58:23;5.63;;;1.92;;
30062;SDS011;16889;67.864;24.990;2022-12-20T18:03:09;4.20;;;1.80;;
30062;SDS011;16889;67.864;24.990;2022-12-20T18:07:55;4.50;;;1.55;;
30062;SDS011;16889;67.864;24.990;2022-12-20T18:12:41;4.55;;;1.80;;
30062;SDS011;16889;67.864;24.990;2022-12-20T18:17:27;6.30;;;2.05;;
30062;SDS011;16889;67.864;24.990;2022-12-20T18:22:13;3.85;;;1.70;;
30062;SDS011;16889;67.864;24.990;2022-12-20T18:26:59;3.22;;;1.42;;
30062;SDS011;16889;67.864;24.990;2022-12-20T18:36:32;2.47;;;1.33;;
30062;SDS011;16889;67.864;24.990;2022-12-20T18:41:21;3.25;;;1.42;;
30062;SDS011;16889;67.864;24.990;2022-12-20T18:46:10;5.57;;;1.77;;
30062;SDS011;16889;67.864;24.990;2022-12-20T18:51:04;4.28;;;1.30;;
30062;SDS011;16889;67.864;24.990;2022-12-20T18:55:52;3.13;;;1.15;;
30062;SDS011;16889;67.864;24.990;2022-12-20T19:00:38;2.33;;;0.90;;
30062;SDS011;16889;67.864;24.990;2022-12-20T19:05:24;1.45;;;1.00;;
30062;SDS011;16889;67.864;24.990;2022-12-20T19:10:12;0.88;;;0.75;;
30062;SDS011;16889;67.864;24.990;2022-12-20T19:14:58;2.10;;;0.90;;
30062;SDS011;16889;67.864;24.990;2022-12-20T19:19:44;1.30;;;0.97;;
30062;SDS011;16889;67.864;24.990;2022-12-20T19:24:30;0.90;;;0.80;;
30062;SDS011;16889;67.864;24.990;2022-12-20T19:29:16;1.70;;;0.80;;
30062;SDS011;16889;67.864;24.990;2022-12-20T19:34:06;0.98;;;0.70;;
30062;SDS011;16889;67.864;24.990;2022-12-20T19:38:56;0.77;;;0.60;;
30062;SDS011;16889;67.864;24.990;2022-12-20T19:43:45;0.50;;;0.50;;
30062;SDS011;16889;67.864;24.990;2022-12-20T19:48:32;1.05;;;0.70;;
30062;SDS011;16889;67.864;24.990;2022-12-20T19:53:20;1.30;;;0.70;;
30062;SDS011;16889;67.864;24.990;2022-12-20T19:58:05;1.77;;;0.70;;
30062;SDS011;16889;67.864;24.990;2022-12-20T20:02:51;0.73;;;0.50;;
30062;SDS011;16889;67.864;24.990;2022-12-20T20:07:37;0.82;;;0.60;;
30062;SDS011;16889;67.864;24.990;2022-12-20T20:12:23;0.60;;;0.50;;
30062;SDS011;16889;67.864;24.990;2022-12-20T20:17:09;0.93;;;0.70;;
30062;SDS011;16889;67.864;24.990;2022-12-20T20:21:55;3.08;;;0.77;;
30062;SDS011;16889;67.864;24.990;2022-12-20T20:26:41;1.05;;;0.88;;
30062;SDS011;16889;67.864;24.990;2022-12-20T20:31:27;1.85;;;0.85;;
30062;SDS011;16889;67.864;24.990;2022-12-20T20:36:16;0.60;;;0.57;;
30062;SDS011;16889;67.864;24.990;2022-12-20T20:41:04;1.00;;;0.82;;
30062;SDS011;16889;67.864;24.990;2022-12-20T20:45:50;1.73;;;1.20;;
30062;SDS011;16889;67.864;24.990;2022-12-20T20:50:37;1.27;;;0.93;;
30062;SDS011;16889;67.864;24.990;2022-12-20T20:55:23;1.30;;;0.90;;
30062;SDS011;16889;67.864;24.990;2022-12-20T21:00:09;1.30;;;1.00;;
30062;SDS011;16889;67.864;24.990;2022-12-20T21:04:56;3.15;;;1.10;;
30062;SDS011;16889;67.864;24.990;2022-12-20T21:09:42;1.98;;;1.20;;
30062;SDS011;16889;67.864;24.990;2022-12-20T21:14:28;1.53;;;1.20;;
30062;SDS011;16889;67.864;24.990;2022-12-20T21:19:14;4.00;;;1.30;;
30062;SDS011;16889;67.864;24.990;2022-12-20T21:24:00;1.80;;;1.20;;
30062;SDS011;16889;67.864;24.990;2022-12-20T21:28:46;1.92;;;1.15;;
30062;SDS011;16889;67.864;24.990;2022-12-20T21:33:32;3.05;;;1.38;;
30062;SDS011;16889;67.864;24.990;2022-12-20T21:38:18;2.25;;;1.25;;
30062;SDS011;16889;67.864;24.990;2022-12-20T21:43:04;1.77;;;1.15;;
30062;SDS011;16889;67.864;24.990;2022-12-20T21:47:50;2.30;;;1.10;;
30062;SDS011;16889;67.864;24.990;2022-12-20T21:52:36;1.95;;;1.23;;
30062;SDS011;16889;67.864;24.990;2022-12-20T21:57:24;2.67;;;1.20;;
30062;SDS011;16889;67.864;24.990;2022-12-20T22:02:10;2.10;;;1.10;;
30062;SDS011;16889;67.864;24.990;2022-12-20T22:06:58;1.77;;;1.20;;
30062;SDS011;16889;67.864;24.990;2022-12-20T22:11:45;3.58;;;1.23;;
30062;SDS011;16889;67.864;24.990;2022-12-20T22:16:34;1.80;;;0.93;;
30062;SDS011;16889;67.864;24.990;2022-12-20T22:21:21;2.30;;;1.02;;
30062;SDS011;16889;67.864;24.990;2022-12-20T22:26:13;1.90;;;1.05;;
30062;SDS011;16889;67.864;24.990;2022-12-20T22:31:08;2.35;;;1.15;;
30062;SDS011;16889;67.864;24.990;2022-12-20T22:35:57;2.55;;;1.13;;
30062;SDS011;16889;67.864;24.990;2022-12-20T22:40:44;1.13;;;0.93;;
30062;SDS011;16889;67.864;24.990;2022-12-20T22:45:30;2.90;;;1.30;;
30062;SDS011;16889;67.864;24.990;2022-12-20T22:50:16;2.10;;;1.20;;
30062;SDS011;16889;67.864;24.990;2022-12-20T22:55:02;2.88;;;1.23;;
30062;SDS011;16889;67.864;24.990;2022-12-20T22:59:48;1.43;;;0.97;;
30062;SDS011;16889;67.864;24.990;2022-12-20T23:04:34;2.58;;;1.10;;
30062;SDS011;16889;67.864;24.990;2022-12-20T23:09:22;1.50;;;1.17;;
30062;SDS011;16889;67.864;24.990;2022-12-20T23:14:19;2.80;;;1.42;;
30062;SDS011;16889;67.864;24.990;2022-12-20T23:19:25;3.72;;;1.50;;
30062;SDS011;16889;67.864;24.990;2022-12-20T23:24:13;2.25;;;1.50;;
30062;SDS011;16889;67.864;24.990;2022-12-20T23:28:59;3.47;;;1.50;;
30062;SDS011;16889;67.864;24.990;2022-12-20T23:33:45;3.78;;;1.52;;
30062;SDS011;16889;67.864;24.990;2022-12-20T23:38:32;2.78;;;1.52;;
30062;SDS011;16889;67.864;24.990;2022-12-20T23:43:19;2.90;;;1.63;;
30062;SDS011;16889;67.864;24.990;2022-12-20T23:48:05;4.88;;;1.70;;
30062;SDS011;16889;67.864;24.990;2022-12-20T23:52:51;3.72;;;1.60;;
30062;SDS011;16889;67.864;24.990;2022-12-20T23:57:37;5.40;;;1.63;;
